createdAt,value
2016-08-14T00:00:02.075Z,85.9
2016-08-14T00:00:05.265Z,85.9
2016-08-14T00:00:08.451Z,86
2016-08-14T00:00:10.892Z,86
2016-08-14T00:00:14.802Z,85.8
2016-08-14T00:00:17.987Z,85.9
2016-08-14T00:00:21.900Z,86
2016-08-14T00:00:24.361Z,85.9
2016-08-14T00:00:27.523Z,86
2016-08-14T00:00:30.709Z,85.9
2016-08-14T00:00:33.898Z,85.9
2016-08-14T00:00:37.817Z,85.9
2016-08-14T00:00:40.977Z,85.9
2016-08-14T00:00:44.894Z,85.9
2016-08-14T00:00:48.083Z,86
2016-08-14T00:00:50.612Z,86
2016-08-14T00:00:53.167Z,85.9
2016-08-14T00:00:56.351Z,85.8
2016-08-14T00:00:59.540Z,86
2016-08-14T00:01:03.477Z,85.9
2016-08-14T00:01:05.333Z,86
2016-08-14T00:01:07.822Z,85.9
2016-08-14T00:01:11.011Z,85.8
2016-08-14T00:01:14.190Z,85.9
2016-08-14T00:01:17.374Z,85.9
2016-08-14T00:01:19.807Z,86
2016-08-14T00:01:23.146Z,86
2016-08-14T00:01:25.588Z,85.9
2016-08-14T00:01:29.508Z,85.9
2016-08-14T00:01:32.740Z,85.9
2016-08-14T00:01:36.807Z,86
2016-08-14T00:01:39.992Z,86
2016-08-14T00:01:43.176Z,86.2
2016-08-14T00:01:46.346Z,86
2016-08-14T00:01:49.509Z,86.1
2016-08-14T00:01:52.704Z,86
2016-08-14T00:01:55.893Z,86.2
2016-08-14T00:01:59.079Z,86.2
2016-08-14T00:02:03.004Z,86
2016-08-14T00:02:04.902Z,85.9
2016-08-14T00:02:08.915Z,86.2
2016-08-14T00:02:11.405Z,86.1
2016-08-14T00:02:15.318Z,86
2016-08-14T00:02:18.515Z,85.9
2016-08-14T00:02:21.703Z,86
2016-08-14T00:02:25.617Z,86.2
2016-08-14T00:02:28.806Z,86
2016-08-14T00:02:31.967Z,86.1
2016-08-14T00:02:35.166Z,86
2016-08-14T00:02:38.333Z,85.9
2016-08-14T00:02:40.794Z,86
2016-08-14T00:02:44.715Z,86
2016-08-14T00:02:48.690Z,86.2
2016-08-14T00:02:50.542Z,86.1
2016-08-14T00:02:53.042Z,86
2016-08-14T00:02:56.327Z,86
2016-08-14T00:02:59.521Z,85.8
2016-08-14T00:03:03.436Z,86
2016-08-14T00:03:06.631Z,86.4
2016-08-14T00:03:09.847Z,86.1
2016-08-14T00:03:13.031Z,86.1
2016-08-14T00:03:16.218Z,86.1
2016-08-14T00:03:18.661Z,85.8
2016-08-14T00:03:21.847Z,86.4
2016-08-14T00:03:25.031Z,86
2016-08-14T00:03:28.944Z,86
2016-08-14T00:03:32.119Z,86
2016-08-14T00:03:36.036Z,85.8
2016-08-14T00:03:39.951Z,85.9
2016-08-14T00:03:43.868Z,85.8
2016-08-14T00:03:47.786Z,86.4
2016-08-14T00:03:50.969Z,85.9
2016-08-14T00:03:54.154Z,86.6
2016-08-14T00:03:57.325Z,86
2016-08-14T00:04:00.488Z,86.5
2016-08-14T00:04:03.679Z,86.5
2016-08-14T00:04:06.864Z,86
2016-08-14T00:04:09.301Z,86.4
2016-08-14T00:04:12.484Z,86.4
2016-08-14T00:04:14.942Z,85.8
2016-08-14T00:04:18.133Z,86.4
2016-08-14T00:04:22.048Z,86.4
2016-08-14T00:04:25.246Z,86.5
2016-08-14T00:04:27.678Z,86.5
2016-08-14T00:04:31.594Z,86.5
2016-08-14T00:04:34.053Z,86.5
2016-08-14T00:04:37.234Z,86.1
2016-08-14T00:04:39.664Z,86.5
2016-08-14T00:04:42.846Z,86.1
2016-08-14T00:04:46.030Z,86.5
2016-08-14T00:04:49.210Z,86.5
2016-08-14T00:04:52.394Z,86.5
2016-08-14T00:04:54.826Z,86.4
2016-08-14T00:04:57.985Z,86.5
2016-08-14T00:04:59.687Z,86.5
2016-08-14T00:05:02.879Z,86.5
2016-08-14T00:05:06.792Z,86.5
2016-08-14T00:05:09.251Z,86.5
2016-08-14T00:05:12.435Z,86.6
2016-08-14T00:05:15.597Z,86.5
2016-08-14T00:05:19.512Z,86.5
2016-08-14T00:05:23.425Z,86.5
2016-08-14T00:05:25.864Z,86.5
2016-08-14T00:05:28.316Z,86.6
2016-08-14T00:05:31.501Z,86.5
2016-08-14T00:05:33.937Z,86.5
2016-08-14T00:05:36.369Z,86.5
2016-08-14T00:05:40.283Z,86.5
2016-08-14T00:05:43.470Z,86.5
2016-08-14T00:05:46.658Z,86.4
2016-08-14T00:05:50.575Z,86.4
2016-08-14T00:05:53.764Z,86.3
2016-08-14T00:05:57.678Z,86
2016-08-14T00:06:01.601Z,86.2
2016-08-14T00:06:04.806Z,86.4
2016-08-14T00:06:07.988Z,86.3
2016-08-14T00:06:11.904Z,86.4
2016-08-14T00:06:15.090Z,86.4
2016-08-14T00:06:18.277Z,86.3
2016-08-14T00:06:22.194Z,86.3
2016-08-14T00:06:24.629Z,86.3
2016-08-14T00:06:28.546Z,86.2
2016-08-14T00:06:31.776Z,86.4
2016-08-14T00:06:34.942Z,86.2
2016-08-14T00:06:38.106Z,86.3
2016-08-14T00:06:41.296Z,86.4
2016-08-14T00:06:45.207Z,86
2016-08-14T00:06:48.369Z,86.4
2016-08-14T00:06:52.286Z,86.4
2016-08-14T00:06:55.466Z,86.5
2016-08-14T00:06:58.628Z,86.3
2016-08-14T00:07:02.542Z,86.1
2016-08-14T00:07:06.472Z,86.4
2016-08-14T00:07:10.386Z,86.5
2016-08-14T00:07:14.300Z,86.3
2016-08-14T00:07:18.215Z,86.1
2016-08-14T00:07:20.651Z,86.1
2016-08-14T00:07:23.112Z,86.3
2016-08-14T00:07:26.297Z,86.1
2016-08-14T00:07:30.208Z,86.2
2016-08-14T00:07:34.124Z,86.1
2016-08-14T00:07:37.310Z,86.3
2016-08-14T00:07:40.505Z,86.6
2016-08-14T00:07:43.679Z,86.2
2016-08-14T00:07:46.864Z,86.3
2016-08-14T00:07:50.053Z,86.4
2016-08-14T00:07:52.487Z,86.1
2016-08-14T00:07:54.189Z,86.1
2016-08-14T00:07:57.351Z,86.6
2016-08-14T00:08:01.270Z,86.5
2016-08-14T00:08:04.437Z,86.4
2016-08-14T00:08:08.347Z,86.5
2016-08-14T00:08:11.536Z,86.3
2016-08-14T00:08:14.721Z,86.1
2016-08-14T00:08:18.639Z,86.5
2016-08-14T00:08:21.073Z,86.4
2016-08-14T00:08:24.265Z,86.3
2016-08-14T00:08:27.447Z,86.7
2016-08-14T00:08:29.881Z,86.3
2016-08-14T00:08:33.063Z,86.3
2016-08-14T00:08:36.222Z,86
2016-08-14T00:08:40.141Z,86.5
2016-08-14T00:08:42.602Z,86.5
2016-08-14T00:08:46.523Z,86.5
2016-08-14T00:08:49.689Z,86.5
2016-08-14T00:08:53.609Z,86.6
2016-08-14T00:08:56.068Z,86.5
2016-08-14T00:08:59.981Z,86.4
2016-08-14T00:09:03.896Z,86.4
2016-08-14T00:09:07.817Z,86.5
2016-08-14T00:09:11.001Z,86.4
2016-08-14T00:09:14.187Z,86.5
2016-08-14T00:09:18.106Z,86.6
2016-08-14T00:09:21.271Z,86.5
2016-08-14T00:09:25.186Z,86.6
2016-08-14T00:09:28.377Z,86.6
2016-08-14T00:09:31.562Z,86.5
2016-08-14T00:09:35.479Z,86.7
2016-08-14T00:09:39.394Z,86.7
2016-08-14T00:09:43.305Z,86.7
2016-08-14T00:09:46.496Z,86.5
2016-08-14T00:09:48.926Z,86.5
2016-08-14T00:09:52.113Z,86.7
2016-08-14T00:09:55.302Z,86.6
2016-08-14T00:09:57.028Z,86.5
2016-08-14T00:10:00.210Z,86.7
2016-08-14T00:10:01.917Z,86.5
2016-08-14T00:10:05.102Z,86.5
2016-08-14T00:10:09.016Z,86.7
2016-08-14T00:10:12.198Z,86.5
2016-08-14T00:10:15.357Z,86.5
2016-08-14T00:10:19.274Z,86.5
2016-08-14T00:10:22.462Z,86.7
2016-08-14T00:10:24.893Z,86.6
2016-08-14T00:10:28.807Z,86.5
2016-08-14T00:10:31.265Z,86.5
2016-08-14T00:10:35.178Z,86.5
2016-08-14T00:10:39.093Z,86.7
2016-08-14T00:10:42.280Z,86.5
2016-08-14T00:10:45.443Z,86.5
2016-08-14T00:10:47.878Z,86.7
2016-08-14T00:10:51.789Z,86.7
2016-08-14T00:10:54.951Z,86.7
2016-08-14T00:10:58.139Z,86.2
2016-08-14T00:11:01.325Z,86.4
2016-08-14T00:11:05.240Z,86.5
2016-08-14T00:11:08.423Z,86.7
2016-08-14T00:11:12.339Z,86.6
2016-08-14T00:11:15.503Z,86.5
2016-08-14T00:11:18.682Z,86.2
2016-08-14T00:11:22.764Z,86.7
2016-08-14T00:11:25.952Z,86.4
2016-08-14T00:11:29.865Z,86.7
2016-08-14T00:11:33.053Z,86.3
2016-08-14T00:11:35.508Z,86.4
2016-08-14T00:11:39.418Z,86.5
2016-08-14T00:11:43.331Z,86.3
2016-08-14T00:11:46.515Z,86.2
2016-08-14T00:11:48.955Z,86.4
2016-08-14T00:11:53.064Z,86.5
2016-08-14T00:11:55.612Z,86.3
2016-08-14T00:11:58.872Z,86.4
2016-08-14T00:12:02.058Z,86.4
2016-08-14T00:12:05.971Z,86.4
2016-08-14T00:12:08.426Z,86.4
2016-08-14T00:12:11.591Z,86.4
2016-08-14T00:12:15.503Z,86.4
2016-08-14T00:12:18.688Z,86.3
2016-08-14T00:12:22.608Z,86.5
2016-08-14T00:12:26.599Z,86.4
2016-08-14T00:12:29.762Z,86.4
2016-08-14T00:12:33.679Z,86.5
2016-08-14T00:12:36.847Z,86.3
2016-08-14T00:12:39.302Z,86.4
2016-08-14T00:12:43.218Z,86.5
2016-08-14T00:12:46.403Z,86.5
2016-08-14T00:12:49.591Z,86.5
2016-08-14T00:12:52.754Z,86.5
2016-08-14T00:12:55.943Z,86.4
2016-08-14T00:12:58.373Z,86.4
2016-08-14T00:13:00.827Z,86.5
2016-08-14T00:13:04.746Z,86.3
2016-08-14T00:13:07.936Z,86.5
2016-08-14T00:13:11.120Z,86.5
2016-08-14T00:13:14.310Z,86.5
2016-08-14T00:13:18.228Z,86.6
2016-08-14T00:13:21.415Z,86.5
2016-08-14T00:13:25.348Z,86.5
2016-08-14T00:13:29.268Z,86.5
2016-08-14T00:13:33.182Z,86.3
2016-08-14T00:13:36.370Z,86.4
2016-08-14T00:13:40.286Z,86.5
2016-08-14T00:13:43.471Z,86.6
2016-08-14T00:13:45.927Z,86.5
2016-08-14T00:13:48.363Z,86.6
2016-08-14T00:13:52.273Z,86.3
2016-08-14T00:13:54.756Z,86.6
2016-08-14T00:13:57.192Z,86.3
2016-08-14T00:14:01.107Z,86.3
2016-08-14T00:14:03.629Z,86.3
2016-08-14T00:14:07.544Z,86.6
2016-08-14T00:14:09.978Z,86.6
2016-08-14T00:14:13.163Z,86.3
2016-08-14T00:14:15.646Z,86.3
2016-08-14T00:14:17.364Z,86.7
2016-08-14T00:14:20.565Z,86.5
2016-08-14T00:14:23.301Z,86.5
2016-08-14T00:14:25.418Z,86.3
2016-08-14T00:14:27.338Z,86.3
2016-08-14T00:14:29.857Z,86.6
2016-08-14T00:14:33.045Z,86.6
2016-08-14T00:14:35.480Z,86.5
2016-08-14T00:14:39.395Z,86.6
2016-08-14T00:14:43.309Z,86.6
2016-08-14T00:14:46.494Z,86.7
2016-08-14T00:14:48.197Z,86.7
2016-08-14T00:14:51.377Z,86.6
2016-08-14T00:14:55.287Z,86.4
2016-08-14T00:14:59.200Z,86.6
2016-08-14T00:15:03.113Z,86.6
2016-08-14T00:15:07.025Z,86.7
2016-08-14T00:15:10.945Z,86.3
2016-08-14T00:15:12.647Z,86.8
2016-08-14T00:15:15.808Z,86.6
2016-08-14T00:15:18.992Z,86.6
2016-08-14T00:15:22.177Z,86.7
2016-08-14T00:15:24.611Z,86.8
2016-08-14T00:15:28.525Z,86.9
2016-08-14T00:15:30.980Z,86.3
2016-08-14T00:15:34.893Z,86.9
2016-08-14T00:15:38.055Z,86.7
2016-08-14T00:15:41.245Z,86.6
2016-08-14T00:15:44.427Z,86.7
2016-08-14T00:15:46.884Z,86.8
2016-08-14T00:15:50.049Z,86.3
2016-08-14T00:15:53.214Z,86.8
2016-08-14T00:15:57.127Z,86.6
2016-08-14T00:15:59.561Z,86.9
2016-08-14T00:16:02.746Z,86.9
2016-08-14T00:16:05.932Z,86.5
2016-08-14T00:16:09.847Z,86.6
2016-08-14T00:16:13.762Z,86.9
2016-08-14T00:16:16.951Z,86.9
2016-08-14T00:16:20.870Z,86.8
2016-08-14T00:16:24.784Z,86.4
2016-08-14T00:16:27.971Z,86.5
2016-08-14T00:16:31.192Z,86.9
2016-08-14T00:16:35.126Z,86.4
2016-08-14T00:16:37.581Z,86.9
2016-08-14T00:16:41.507Z,86.4
2016-08-14T00:16:43.210Z,86.9
2016-08-14T00:16:46.393Z,86.8
2016-08-14T00:16:48.850Z,86.4
2016-08-14T00:16:52.013Z,86.4
2016-08-14T00:16:54.470Z,86.9
2016-08-14T00:16:58.388Z,86.4
2016-08-14T00:17:02.304Z,86.9
2016-08-14T00:17:05.773Z,86.9
2016-08-14T00:17:09.688Z,86.5
2016-08-14T00:17:13.601Z,86.4
2016-08-14T00:17:16.046Z,86.9
2016-08-14T00:17:19.211Z,86.9
2016-08-14T00:17:23.139Z,86.9
2016-08-14T00:17:25.595Z,86.9
2016-08-14T00:17:29.510Z,86.5
2016-08-14T00:17:32.697Z,86.9
2016-08-14T00:17:36.612Z,86.9
2016-08-14T00:17:39.798Z,86.9
2016-08-14T00:17:42.958Z,86.5
2016-08-14T00:17:46.142Z,86.9
2016-08-14T00:17:48.576Z,86.9
2016-08-14T00:17:52.492Z,86.9
2016-08-14T00:17:55.677Z,86.5
2016-08-14T00:17:59.601Z,86.7
2016-08-14T00:18:01.346Z,86.5
2016-08-14T00:18:05.261Z,86.9
2016-08-14T00:18:08.447Z,87
2016-08-14T00:18:12.362Z,86.5
2016-08-14T00:18:16.279Z,86.5
2016-08-14T00:18:19.468Z,86.7
2016-08-14T00:18:22.666Z,86.5
2016-08-14T00:18:25.667Z,86.6
2016-08-14T00:18:28.419Z,87
2016-08-14T00:18:31.190Z,86.7
2016-08-14T00:18:35.107Z,86.7
2016-08-14T00:18:38.290Z,86.8
2016-08-14T00:18:41.456Z,86.7
2016-08-14T00:18:43.894Z,86.5
2016-08-14T00:18:47.810Z,86.6
2016-08-14T00:18:50.997Z,86.9
2016-08-14T00:18:54.910Z,86.7
2016-08-14T00:18:57.364Z,86.6
2016-08-14T00:19:00.552Z,86.8
2016-08-14T00:19:03.740Z,86.7
2016-08-14T00:19:07.656Z,86.6
2016-08-14T00:19:10.844Z,86.7
2016-08-14T00:19:14.054Z,86.6
2016-08-14T00:19:16.490Z,86.7
2016-08-14T00:19:19.681Z,86.6
2016-08-14T00:19:23.597Z,86.8
2016-08-14T00:19:26.771Z,86.7
2016-08-14T00:19:30.696Z,86.8
2016-08-14T00:19:33.880Z,86.7
2016-08-14T00:19:36.338Z,86.9
2016-08-14T00:19:40.260Z,87
2016-08-14T00:19:43.445Z,86.9
2016-08-14T00:19:46.635Z,87
2016-08-14T00:19:50.548Z,86.8
2016-08-14T00:19:53.712Z,86.7
2016-08-14T00:19:57.622Z,86.9
2016-08-14T00:20:00.055Z,86.7
2016-08-14T00:20:03.968Z,86.8
2016-08-14T00:20:07.149Z,86.7
2016-08-14T00:20:10.338Z,86.6
2016-08-14T00:20:14.253Z,86.9
2016-08-14T00:20:16.685Z,86.9
2016-08-14T00:20:20.122Z,86.6
2016-08-14T00:20:23.445Z,86.6
2016-08-14T00:20:27.356Z,86.9
2016-08-14T00:20:31.293Z,86.8
2016-08-14T00:20:35.209Z,87
2016-08-14T00:20:39.120Z,86.9
2016-08-14T00:20:42.306Z,86.7
2016-08-14T00:20:44.743Z,86.8
2016-08-14T00:20:46.449Z,86.9
2016-08-14T00:20:50.361Z,86.8
2016-08-14T00:20:53.524Z,86.6
2016-08-14T00:20:55.978Z,86.7
2016-08-14T00:20:58.435Z,86.6
2016-08-14T00:21:02.345Z,86.6
2016-08-14T00:21:05.530Z,86.7
2016-08-14T00:21:08.716Z,86.7
2016-08-14T00:21:11.171Z,86.6
2016-08-14T00:21:14.361Z,86.9
2016-08-14T00:21:17.549Z,86.6
2016-08-14T00:21:19.989Z,86.9
2016-08-14T00:21:24.172Z,87
2016-08-14T00:21:27.661Z,86.8
2016-08-14T00:21:30.102Z,86.8
2016-08-14T00:21:34.105Z,86.9
2016-08-14T00:21:37.434Z,86.8
2016-08-14T00:21:41.040Z,87
2016-08-14T00:21:44.987Z,86.8
2016-08-14T00:21:47.444Z,86.7
2016-08-14T00:21:49.148Z,87
2016-08-14T00:21:53.063Z,86.6
2016-08-14T00:21:57.015Z,86.8
2016-08-14T00:22:00.187Z,86.7
2016-08-14T00:22:03.345Z,86.6
2016-08-14T00:22:05.773Z,86.8
2016-08-14T00:22:08.960Z,86.7
2016-08-14T00:22:12.147Z,86.7
2016-08-14T00:22:16.062Z,86.5
2016-08-14T00:22:18.497Z,86.7
2016-08-14T00:22:22.415Z,86.9
2016-08-14T00:22:25.599Z,86.7
2016-08-14T00:22:28.037Z,86.8
2016-08-14T00:22:31.289Z,86.8
2016-08-14T00:22:35.204Z,86.5
2016-08-14T00:22:38.394Z,86.7
2016-08-14T00:22:42.311Z,86.8
2016-08-14T00:22:46.224Z,86.8
2016-08-14T00:22:49.416Z,86.8
2016-08-14T00:22:52.600Z,86.8
2016-08-14T00:22:56.522Z,86.8
2016-08-14T00:22:59.705Z,86.8
2016-08-14T00:23:02.150Z,86.8
2016-08-14T00:23:04.612Z,86.8
2016-08-14T00:23:08.521Z,86.6
2016-08-14T00:23:11.812Z,86.8
2016-08-14T00:23:15.722Z,86.5
2016-08-14T00:23:18.915Z,86.8
2016-08-14T00:23:22.832Z,86.6
2016-08-14T00:23:26.743Z,86.8
2016-08-14T00:23:28.448Z,86.6
2016-08-14T00:23:32.363Z,86.5
2016-08-14T00:23:35.527Z,86.6
2016-08-14T00:23:39.444Z,86.7
2016-08-14T00:23:43.372Z,86.5
2016-08-14T00:23:47.286Z,86.5
2016-08-14T00:23:50.475Z,86.5
2016-08-14T00:23:54.392Z,86.7
2016-08-14T00:23:57.574Z,86.7
2016-08-14T00:24:00.738Z,86.8
2016-08-14T00:24:04.663Z,86.7
2016-08-14T00:24:07.850Z,86.7
2016-08-14T00:24:11.018Z,86.7
2016-08-14T00:24:14.932Z,86.6
2016-08-14T00:24:17.391Z,86.8
2016-08-14T00:24:21.306Z,86.8
2016-08-14T00:24:24.491Z,86.7
2016-08-14T00:24:27.677Z,86.7
2016-08-14T00:24:31.594Z,86.7
2016-08-14T00:24:35.507Z,86.7
2016-08-14T00:24:37.942Z,86.7
2016-08-14T00:24:41.129Z,86.7
2016-08-14T00:24:44.314Z,86.7
2016-08-14T00:24:48.310Z,86.3
2016-08-14T00:24:50.937Z,86.3
2016-08-14T00:24:54.236Z,86.4
2016-08-14T00:24:56.721Z,86.8
2016-08-14T00:24:59.911Z,86.7
2016-08-14T00:25:03.161Z,86.7
2016-08-14T00:25:07.187Z,86.8
2016-08-14T00:25:09.687Z,86.3
2016-08-14T00:25:12.870Z,86.3
2016-08-14T00:25:16.106Z,86.4
2016-08-14T00:25:20.017Z,86.8
2016-08-14T00:25:23.200Z,86.7
2016-08-14T00:25:27.117Z,86.7
2016-08-14T00:25:29.549Z,86.4
2016-08-14T00:25:33.508Z,86.5
2016-08-14T00:25:36.694Z,86.4
2016-08-14T00:25:39.900Z,87
2016-08-14T00:25:43.089Z,86.5
2016-08-14T00:25:46.270Z,86.3
2016-08-14T00:25:50.186Z,86.4
2016-08-14T00:25:54.101Z,86.5
2016-08-14T00:25:58.019Z,86.7
2016-08-14T00:26:01.962Z,86.4
2016-08-14T00:26:05.144Z,86.5
2016-08-14T00:26:08.311Z,86.5
2016-08-14T00:26:12.224Z,86.5
2016-08-14T00:26:14.697Z,87
2016-08-14T00:26:18.629Z,86.9
2016-08-14T00:26:21.811Z,86.8
2016-08-14T00:26:25.002Z,86.8
2016-08-14T00:26:28.188Z,86.5
2016-08-14T00:26:30.643Z,86.5
2016-08-14T00:26:33.832Z,86.4
2016-08-14T00:26:36.996Z,87
2016-08-14T00:26:39.430Z,87
2016-08-14T00:26:43.349Z,86.4
2016-08-14T00:26:47.264Z,86.8
2016-08-14T00:26:49.720Z,87
2016-08-14T00:26:52.886Z,86.5
2016-08-14T00:26:55.340Z,86.5
2016-08-14T00:26:57.094Z,86.8
2016-08-14T00:27:00.278Z,86.4
2016-08-14T00:27:04.193Z,86.8
2016-08-14T00:27:06.630Z,86.9
2016-08-14T00:27:10.584Z,86.8
2016-08-14T00:27:13.770Z,87
2016-08-14T00:27:17.686Z,86.9
2016-08-14T00:27:21.605Z,86.4
2016-08-14T00:27:25.515Z,86.4
2016-08-14T00:27:29.430Z,86.5
2016-08-14T00:27:32.628Z,86.4
2016-08-14T00:27:35.802Z,87
2016-08-14T00:27:38.964Z,86.4
2016-08-14T00:27:41.422Z,87
2016-08-14T00:27:45.335Z,86.5
2016-08-14T00:27:48.521Z,86.9
2016-08-14T00:27:50.294Z,86.4
2016-08-14T00:27:51.996Z,86.5
2016-08-14T00:27:55.910Z,86.9
2016-08-14T00:27:59.829Z,86.9
2016-08-14T00:28:03.022Z,86.9
2016-08-14T00:28:06.935Z,86.4
2016-08-14T00:28:10.852Z,86.5
2016-08-14T00:28:14.038Z,87
2016-08-14T00:28:17.948Z,86.9
2016-08-14T00:28:21.859Z,86.9
2016-08-14T00:28:25.772Z,86.9
2016-08-14T00:28:29.686Z,87
2016-08-14T00:28:32.846Z,87
2016-08-14T00:28:36.029Z,86.9
2016-08-14T00:28:39.230Z,86.8
2016-08-14T00:28:42.394Z,87
2016-08-14T00:28:44.828Z,86.9
2016-08-14T00:28:48.010Z,86.9
2016-08-14T00:28:51.194Z,87
2016-08-14T00:28:53.754Z,87
2016-08-14T00:28:56.219Z,87
2016-08-14T00:28:59.405Z,86.8
2016-08-14T00:29:02.596Z,86.8
2016-08-14T00:29:05.054Z,87
2016-08-14T00:29:08.222Z,86.9
2016-08-14T00:29:11.407Z,87
2016-08-14T00:29:15.318Z,87
2016-08-14T00:29:19.232Z,87
2016-08-14T00:29:23.150Z,86.9
2016-08-14T00:29:26.334Z,87
2016-08-14T00:29:29.494Z,86.9
2016-08-14T00:29:32.680Z,86.9
2016-08-14T00:29:35.841Z,87
2016-08-14T00:29:39.754Z,87
2016-08-14T00:29:42.939Z,87
2016-08-14T00:29:46.852Z,87
2016-08-14T00:29:50.017Z,87
2016-08-14T00:29:53.939Z,87
2016-08-14T00:29:57.850Z,86.9
2016-08-14T00:30:00.283Z,87
2016-08-14T00:30:03.470Z,87
2016-08-14T00:30:07.386Z,87
2016-08-14T00:30:10.568Z,87
2016-08-14T00:30:13.754Z,87
2016-08-14T00:30:16.188Z,87
2016-08-14T00:30:19.379Z,87
2016-08-14T00:30:22.543Z,87
2016-08-14T00:30:26.458Z,86.9
2016-08-14T00:30:30.370Z,87
2016-08-14T00:30:32.834Z,86.9
2016-08-14T00:30:36.799Z,87
2016-08-14T00:30:39.959Z,87
2016-08-14T00:30:43.124Z,87
2016-08-14T00:30:46.306Z,86.9
2016-08-14T00:30:50.222Z,87
2016-08-14T00:30:54.136Z,86.9
2016-08-14T00:30:57.315Z,87
2016-08-14T00:30:59.023Z,87
2016-08-14T00:31:02.936Z,86.9
2016-08-14T00:31:05.370Z,87
2016-08-14T00:31:09.282Z,87
2016-08-14T00:31:13.197Z,86.8
2016-08-14T00:31:16.380Z,86.9
2016-08-14T00:31:19.564Z,86.8
2016-08-14T00:31:22.748Z,87
2016-08-14T00:31:24.471Z,87
2016-08-14T00:31:28.388Z,86.9
2016-08-14T00:31:31.572Z,87
2016-08-14T00:31:34.758Z,86.9
2016-08-14T00:31:37.938Z,86.9
2016-08-14T00:31:41.853Z,86.9
2016-08-14T00:31:44.308Z,86.8
2016-08-14T00:31:48.222Z,86.5
2016-08-14T00:31:52.138Z,86.9
2016-08-14T00:31:56.054Z,86.9
2016-08-14T00:31:58.501Z,87
2016-08-14T00:32:01.678Z,86.3
2016-08-14T00:32:04.132Z,87
2016-08-14T00:32:08.049Z,87
2016-08-14T00:32:11.236Z,86.9
2016-08-14T00:32:12.942Z,86.9
2016-08-14T00:32:16.105Z,86.9
2016-08-14T00:32:19.289Z,86.9
2016-08-14T00:32:20.992Z,86.9
2016-08-14T00:32:24.152Z,86.9
2016-08-14T00:32:28.065Z,87
2016-08-14T00:32:31.979Z,86.9
2016-08-14T00:32:35.895Z,86.9
2016-08-14T00:32:39.809Z,86.8
2016-08-14T00:32:43.728Z,86.9
2016-08-14T00:32:46.179Z,87
2016-08-14T00:32:49.364Z,87
2016-08-14T00:32:52.561Z,87
2016-08-14T00:32:55.011Z,86.9
2016-08-14T00:32:58.215Z,87
2016-08-14T00:33:01.387Z,86.9
2016-08-14T00:33:04.548Z,87
2016-08-14T00:33:08.469Z,86.9
2016-08-14T00:33:10.921Z,87
2016-08-14T00:33:14.837Z,86.9
2016-08-14T00:33:17.270Z,87
2016-08-14T00:33:20.429Z,87
2016-08-14T00:33:23.591Z,87
2016-08-14T00:33:26.785Z,87.2
2016-08-14T00:33:30.699Z,86.9
2016-08-14T00:33:33.154Z,87
2016-08-14T00:33:36.344Z,87
2016-08-14T00:33:39.530Z,87
2016-08-14T00:33:43.444Z,87
2016-08-14T00:33:47.364Z,86.9
2016-08-14T00:33:51.270Z,86.7
2016-08-14T00:33:55.184Z,87
2016-08-14T00:33:59.101Z,87
2016-08-14T00:34:01.551Z,87
2016-08-14T00:34:03.987Z,87
2016-08-14T00:34:07.170Z,87
2016-08-14T00:34:11.088Z,87
2016-08-14T00:34:14.270Z,87
2016-08-14T00:34:18.183Z,86.8
2016-08-14T00:34:20.613Z,86.8
2016-08-14T00:34:22.316Z,86.8
2016-08-14T00:34:26.233Z,87
2016-08-14T00:34:28.698Z,86.8
2016-08-14T00:34:31.137Z,86.7
2016-08-14T00:34:34.330Z,86.9
2016-08-14T00:34:37.493Z,87
2016-08-14T00:34:39.959Z,87
2016-08-14T00:34:43.876Z,87
2016-08-14T00:34:47.788Z,87
2016-08-14T00:34:50.245Z,86.9
2016-08-14T00:34:52.681Z,86.7
2016-08-14T00:34:55.872Z,87
2016-08-14T00:34:59.074Z,86.8
2016-08-14T00:35:02.241Z,87
2016-08-14T00:35:04.678Z,87
2016-08-14T00:35:07.127Z,87.2
2016-08-14T00:35:11.044Z,87
2016-08-14T00:35:13.503Z,87
2016-08-14T00:35:17.418Z,87
2016-08-14T00:35:20.608Z,86.7
2016-08-14T00:35:24.525Z,87
2016-08-14T00:35:26.982Z,86.7
2016-08-14T00:35:30.169Z,87
2016-08-14T00:35:34.084Z,87
2016-08-14T00:35:36.542Z,87
2016-08-14T00:35:38.997Z,86.8
2016-08-14T00:35:42.910Z,87
2016-08-14T00:35:46.840Z,86.7
2016-08-14T00:35:50.754Z,87
2016-08-14T00:35:54.666Z,87
2016-08-14T00:35:56.413Z,87
2016-08-14T00:35:59.575Z,86.8
2016-08-14T00:36:03.490Z,86.8
2016-08-14T00:36:05.923Z,87
2016-08-14T00:36:08.358Z,86.9
2016-08-14T00:36:10.819Z,87
2016-08-14T00:36:14.730Z,87
2016-08-14T00:36:18.645Z,86.7
2016-08-14T00:36:21.082Z,87
2016-08-14T00:36:24.267Z,87
2016-08-14T00:36:28.179Z,86.7
2016-08-14T00:36:30.637Z,86.8
2016-08-14T00:36:34.552Z,86.9
2016-08-14T00:36:37.734Z,86.7
2016-08-14T00:36:41.649Z,87
2016-08-14T00:36:45.564Z,87
2016-08-14T00:36:48.729Z,87.2
2016-08-14T00:36:50.433Z,86.9
2016-08-14T00:36:52.866Z,86.8
2016-08-14T00:36:56.779Z,87
2016-08-14T00:36:59.965Z,86.9
2016-08-14T00:37:03.149Z,87
2016-08-14T00:37:06.335Z,86.8
2016-08-14T00:37:09.522Z,86.9
2016-08-14T00:37:12.706Z,86.7
2016-08-14T00:37:15.895Z,87
2016-08-14T00:37:18.346Z,86.8
2016-08-14T00:37:22.257Z,86.7
2016-08-14T00:37:25.421Z,87
2016-08-14T00:37:28.612Z,87
2016-08-14T00:37:30.317Z,86.9
2016-08-14T00:37:34.235Z,86.7
2016-08-14T00:37:37.417Z,86.8
2016-08-14T00:37:40.602Z,86.7
2016-08-14T00:37:43.057Z,86.8
2016-08-14T00:37:46.976Z,86.9
2016-08-14T00:37:50.138Z,86.7
2016-08-14T00:37:53.300Z,87
2016-08-14T00:37:56.461Z,87
2016-08-14T00:38:00.376Z,86.8
2016-08-14T00:38:04.292Z,87
2016-08-14T00:38:08.210Z,86.9
2016-08-14T00:38:12.125Z,87
2016-08-14T00:38:16.039Z,86.9
2016-08-14T00:38:19.229Z,87.1
2016-08-14T00:38:23.140Z,86.8
2016-08-14T00:38:26.301Z,86.8
2016-08-14T00:38:30.214Z,86.7
2016-08-14T00:38:34.132Z,87.1
2016-08-14T00:38:38.049Z,86.8
2016-08-14T00:38:41.215Z,86.7
2016-08-14T00:38:44.401Z,86.9
2016-08-14T00:38:48.318Z,87.1
2016-08-14T00:38:51.499Z,87
2016-08-14T00:38:55.425Z,86.8
2016-08-14T00:38:58.702Z,86.8
2016-08-14T00:39:01.889Z,86.9
2016-08-14T00:39:05.075Z,86.9
2016-08-14T00:39:08.264Z,86.9
2016-08-14T00:39:11.448Z,86.9
2016-08-14T00:39:15.364Z,86.9
2016-08-14T00:39:18.555Z,86.8
2016-08-14T00:39:22.468Z,86.7
2016-08-14T00:39:25.655Z,86.9
2016-08-14T00:39:29.571Z,86.9
2016-08-14T00:39:33.499Z,86.9
2016-08-14T00:39:37.414Z,87
2016-08-14T00:39:39.851Z,86.8
2016-08-14T00:39:43.764Z,86.9
2016-08-14T00:39:46.947Z,87
2016-08-14T00:39:49.387Z,86.9
2016-08-14T00:39:52.577Z,87.1
2016-08-14T00:39:55.761Z,86.9
2016-08-14T00:39:58.944Z,86.8
2016-08-14T00:40:02.107Z,86.9
2016-08-14T00:40:05.293Z,87
2016-08-14T00:40:07.729Z,86.9
2016-08-14T00:40:11.644Z,87
2016-08-14T00:40:14.127Z,86.9
2016-08-14T00:40:18.038Z,86.9
2016-08-14T00:40:20.469Z,86.8
2016-08-14T00:40:22.905Z,87
2016-08-14T00:40:26.819Z,86.9
2016-08-14T00:40:29.257Z,87
2016-08-14T00:40:32.448Z,87
2016-08-14T00:40:34.882Z,87
2016-08-14T00:40:38.070Z,87
2016-08-14T00:40:41.232Z,87
2016-08-14T00:40:44.405Z,86.8
2016-08-14T00:40:47.589Z,86.8
2016-08-14T00:40:50.775Z,86.8
2016-08-14T00:40:53.962Z,87
2016-08-14T00:40:57.159Z,86.8
2016-08-14T00:41:01.074Z,86.8
2016-08-14T00:41:04.237Z,86.8
2016-08-14T00:41:08.150Z,86.8
2016-08-14T00:41:12.067Z,86.9
2016-08-14T00:41:15.979Z,86.8
2016-08-14T00:41:19.893Z,87
2016-08-14T00:41:23.806Z,87
2016-08-14T00:41:27.720Z,86.7
2016-08-14T00:41:31.636Z,86.8
2016-08-14T00:41:35.551Z,87
2016-08-14T00:41:38.745Z,86.7
2016-08-14T00:41:41.185Z,87
2016-08-14T00:41:43.625Z,86.7
2016-08-14T00:41:47.540Z,87
2016-08-14T00:41:51.454Z,87
2016-08-14T00:41:55.369Z,86.8
2016-08-14T00:41:59.281Z,86.7
2016-08-14T00:42:02.470Z,87
2016-08-14T00:42:06.383Z,86.8
2016-08-14T00:42:09.578Z,86.8
2016-08-14T00:42:12.015Z,86.8
2016-08-14T00:42:15.929Z,86.7
2016-08-14T00:42:18.363Z,86.8
2016-08-14T00:42:20.067Z,86.8
2016-08-14T00:42:23.982Z,86.8
2016-08-14T00:42:26.436Z,86.8
2016-08-14T00:42:29.623Z,86.8
2016-08-14T00:42:33.537Z,86.8
2016-08-14T00:42:36.726Z,86.8
2016-08-14T00:42:40.644Z,86.6
2016-08-14T00:42:43.095Z,86.6
2016-08-14T00:42:46.282Z,87
2016-08-14T00:42:49.466Z,86.9
2016-08-14T00:42:52.648Z,86.8
2016-08-14T00:42:54.371Z,86.6
2016-08-14T00:42:57.540Z,86.6
2016-08-14T00:43:00.719Z,86.8
2016-08-14T00:43:03.902Z,86.6
2016-08-14T00:43:07.065Z,87
2016-08-14T00:43:09.521Z,86.7
2016-08-14T00:43:12.712Z,86.6
2016-08-14T00:43:16.632Z,86.8
2016-08-14T00:43:19.815Z,86.8
2016-08-14T00:43:23.730Z,87.1
2016-08-14T00:43:26.910Z,86.7
2016-08-14T00:43:29.344Z,86.8
2016-08-14T00:43:33.256Z,86.8
2016-08-14T00:43:36.440Z,86.8
2016-08-14T00:43:39.625Z,86.8
2016-08-14T00:43:42.062Z,86.9
2016-08-14T00:43:45.246Z,87
2016-08-14T00:43:48.410Z,86.9
2016-08-14T00:43:50.865Z,86.7
2016-08-14T00:43:54.781Z,86.8